sensor_id;sensor_type;location;lat;lon;timestamp;P1;durP1;ratioP1;P2;durP2;ratioP2
40669;SDS011;26355;45.528;9.234;2023-02-28T00:00:15;18.75;;;8.45;;
40669;SDS011;26355;45.528;9.234;2023-02-28T00:02:42;20.85;;;8.43;;
40669;SDS011;26355;45.528;9.234;2023-02-28T00:05:09;20.23;;;7.45;;
40669;SDS011;26355;45.528;9.234;2023-02-28T00:07:36;18.13;;;7.95;;
40669;SDS011;26355;45.528;9.234;2023-02-28T00:10:03;18.58;;;7.53;;
40669;SDS011;26355;45.528;9.234;2023-02-28T00:12:31;16.40;;;7.20;;
40669;SDS011;26355;45.528;9.234;2023-02-28T00:14:57;17.27;;;7.07;;
40669;SDS011;26355;45.528;9.234;2023-02-28T00:17:23;16.45;;;6.38;;
40669;SDS011;26355;45.528;9.234;2023-02-28T00:19:48;18.88;;;6.38;;
40669;SDS011;26355;45.528;9.234;2023-02-28T00:22:16;17.90;;;6.90;;
40669;SDS011;26355;45.528;9.234;2023-02-28T00:24:43;15.63;;;5.90;;
40669;SDS011;26355;45.528;9.234;2023-02-28T00:27:09;17.65;;;7.40;;
40669;SDS011;26355;45.528;9.234;2023-02-28T00:29:35;16.38;;;6.03;;
40669;SDS011;26355;45.528;9.234;2023-02-28T00:32:02;16.25;;;6.60;;
40669;SDS011;26355;45.528;9.234;2023-02-28T00:34:28;19.83;;;6.53;;
40669;SDS011;26355;45.528;9.234;2023-02-28T00:36:54;16.08;;;6.05;;
40669;SDS011;26355;45.528;9.234;2023-02-28T00:39:20;16.42;;;6.18;;
40669;SDS011;26355;45.528;9.234;2023-02-28T00:41:45;18.00;;;6.65;;
40669;SDS011;26355;45.528;9.234;2023-02-28T00:44:11;17.02;;;6.38;;
40669;SDS011;26355;45.528;9.234;2023-02-28T00:46:37;16.15;;;6.00;;
40669;SDS011;26355;45.528;9.234;2023-02-28T00:49:02;17.48;;;6.57;;
40669;SDS011;26355;45.528;9.234;2023-02-28T00:51:28;15.48;;;5.22;;
40669;SDS011;26355;45.528;9.234;2023-02-28T00:53:54;17.05;;;5.72;;
40669;SDS011;26355;45.528;9.234;2023-02-28T00:56:20;17.05;;;6.40;;
40669;SDS011;26355;45.528;9.234;2023-02-28T00:58:46;18.65;;;6.32;;
40669;SDS011;26355;45.528;9.234;2023-02-28T01:01:12;18.13;;;6.70;;
40669;SDS011;26355;45.528;9.234;2023-02-28T01:03:37;17.27;;;5.88;;
40669;SDS011;26355;45.528;9.234;2023-02-28T01:06:03;17.45;;;6.53;;
40669;SDS011;26355;45.528;9.234;2023-02-28T01:08:29;16.52;;;6.63;;
40669;SDS011;26355;45.528;9.234;2023-02-28T01:10:55;17.50;;;6.50;;
40669;SDS011;26355;45.528;9.234;2023-02-28T01:13:21;17.58;;;6.40;;
40669;SDS011;26355;45.528;9.234;2023-02-28T01:15:52;22.08;;;8.13;;
40669;SDS011;26355;45.528;9.234;2023-02-28T01:18:21;18.02;;;6.88;;
40669;SDS011;26355;45.528;9.234;2023-02-28T01:20:47;17.70;;;6.85;;
40669;SDS011;26355;45.528;9.234;2023-02-28T01:23:13;20.10;;;7.80;;
40669;SDS011;26355;45.528;9.234;2023-02-28T01:25:39;17.08;;;6.82;;
40669;SDS011;26355;45.528;9.234;2023-02-28T01:28:05;18.33;;;6.68;;
40669;SDS011;26355;45.528;9.234;2023-02-28T01:30:31;18.00;;;7.78;;
40669;SDS011;26355;45.528;9.234;2023-02-28T01:32:57;17.67;;;7.50;;
40669;SDS011;26355;45.528;9.234;2023-02-28T01:35:23;19.20;;;7.20;;
40669;SDS011;26355;45.528;9.234;2023-02-28T01:37:49;18.42;;;7.28;;
40669;SDS011;26355;45.528;9.234;2023-02-28T01:40:14;18.13;;;6.55;;
40669;SDS011;26355;45.528;9.234;2023-02-28T01:42:40;20.02;;;7.43;;
40669;SDS011;26355;45.528;9.234;2023-02-28T01:45:22;18.58;;;7.57;;
40669;SDS011;26355;45.528;9.234;2023-02-28T01:48:04;18.48;;;6.90;;
40669;SDS011;26355;45.528;9.234;2023-02-28T01:50:34;17.88;;;7.45;;
40669;SDS011;26355;45.528;9.234;2023-02-28T01:53:04;17.67;;;7.28;;
40669;SDS011;26355;45.528;9.234;2023-02-28T01:55:32;17.75;;;7.60;;
40669;SDS011;26355;45.528;9.234;2023-02-28T01:58:00;18.05;;;7.47;;
40669;SDS011;26355;45.528;9.234;2023-02-28T02:00:29;18.42;;;7.57;;
40669;SDS011;26355;45.528;9.234;2023-02-28T02:03:00;18.48;;;7.25;;
40669;SDS011;26355;45.528;9.234;2023-02-28T02:05:36;21.77;;;7.78;;
40669;SDS011;26355;45.528;9.234;2023-02-28T02:08:04;18.50;;;7.20;;
40669;SDS011;26355;45.528;9.234;2023-02-28T02:10:35;19.08;;;7.20;;
40669;SDS011;26355;45.528;9.234;2023-02-28T02:21:41;17.70;;;7.18;;
40669;SDS011;26355;45.528;9.234;2023-02-28T02:43:51;17.88;;;6.95;;
40669;SDS011;26355;45.528;9.234;2023-02-28T02:47:05;16.92;;;6.97;;
40669;SDS011;26355;45.528;9.234;2023-02-28T02:49:17;19.67;;;7.13;;
40669;SDS011;26355;45.528;9.234;2023-02-28T02:51:47;20.48;;;7.72;;
40669;SDS011;26355;45.528;9.234;2023-02-28T02:54:16;18.52;;;6.93;;
40669;SDS011;26355;45.528;9.234;2023-02-28T02:56:45;19.52;;;7.28;;
40669;SDS011;26355;45.528;9.234;2023-02-28T02:59:13;17.08;;;7.40;;
40669;SDS011;26355;45.528;9.234;2023-02-28T03:01:46;18.20;;;7.43;;
40669;SDS011;26355;45.528;9.234;2023-02-28T03:04:19;19.60;;;7.22;;
40669;SDS011;26355;45.528;9.234;2023-02-28T03:06:47;17.95;;;7.78;;
40669;SDS011;26355;45.528;9.234;2023-02-28T03:09:15;18.17;;;7.53;;
40669;SDS011;26355;45.528;9.234;2023-02-28T03:11:40;17.33;;;7.03;;
40669;SDS011;26355;45.528;9.234;2023-02-28T03:16:41;16.30;;;6.88;;
40669;SDS011;26355;45.528;9.234;2023-02-28T03:19:49;16.80;;;7.22;;
40669;SDS011;26355;45.528;9.234;2023-02-28T03:22:26;16.92;;;6.72;;
40669;SDS011;26355;45.528;9.234;2023-02-28T03:25:27;18.45;;;7.60;;
40669;SDS011;26355;45.528;9.234;2023-02-28T03:30:39;19.02;;;7.38;;
40669;SDS011;26355;45.528;9.234;2023-02-28T03:33:28;20.02;;;7.15;;
40669;SDS011;26355;45.528;9.234;2023-02-28T03:36:01;18.27;;;7.65;;
40669;SDS011;26355;45.528;9.234;2023-02-28T03:38:32;18.95;;;7.22;;
40669;SDS011;26355;45.528;9.234;2023-02-28T03:41:14;18.85;;;8.38;;
40669;SDS011;26355;45.528;9.234;2023-02-28T03:43:56;19.02;;;7.82;;
40669;SDS011;26355;45.528;9.234;2023-02-28T03:46:26;18.30;;;6.90;;
40669;SDS011;26355;45.528;9.234;2023-02-28T03:49:03;18.20;;;7.35;;
40669;SDS011;26355;45.528;9.234;2023-02-28T03:51:36;18.23;;;7.32;;
40669;SDS011;26355;45.528;9.234;2023-02-28T03:54:07;18.63;;;8.88;;
40669;SDS011;26355;45.528;9.234;2023-02-28T03:56:38;17.00;;;7.03;;
40669;SDS011;26355;45.528;9.234;2023-02-28T03:59:28;18.35;;;8.05;;
40669;SDS011;26355;45.528;9.234;2023-02-28T04:01:59;16.55;;;7.63;;
40669;SDS011;26355;45.528;9.234;2023-02-28T04:04:25;18.50;;;6.85;;
40669;SDS011;26355;45.528;9.234;2023-02-28T04:06:51;20.23;;;7.72;;
40669;SDS011;26355;45.528;9.234;2023-02-28T04:09:17;18.10;;;7.17;;
40669;SDS011;26355;45.528;9.234;2023-02-28T04:11:44;16.75;;;7.10;;
40669;SDS011;26355;45.528;9.234;2023-02-28T04:14:13;18.10;;;7.82;;
40669;SDS011;26355;45.528;9.234;2023-02-28T04:16:40;18.52;;;7.13;;
40669;SDS011;26355;45.528;9.234;2023-02-28T04:19:06;20.10;;;7.95;;
40669;SDS011;26355;45.528;9.234;2023-02-28T04:21:37;17.40;;;6.88;;
40669;SDS011;26355;45.528;9.234;2023-02-28T04:24:05;16.10;;;6.72;;
40669;SDS011;26355;45.528;9.234;2023-02-28T04:26:32;18.92;;;7.82;;
40669;SDS011;26355;45.528;9.234;2023-02-28T04:28:59;19.38;;;7.40;;
40669;SDS011;26355;45.528;9.234;2023-02-28T04:31:26;16.80;;;7.35;;
40669;SDS011;26355;45.528;9.234;2023-02-28T04:33:51;17.15;;;7.07;;
40669;SDS011;26355;45.528;9.234;2023-02-28T04:36:17;17.95;;;6.70;;
40669;SDS011;26355;45.528;9.234;2023-02-28T04:38:43;18.58;;;7.45;;
40669;SDS011;26355;45.528;9.234;2023-02-28T04:41:10;17.53;;;7.50;;
40669;SDS011;26355;45.528;9.234;2023-02-28T04:43:36;16.38;;;7.15;;
40669;SDS011;26355;45.528;9.234;2023-02-28T04:46:02;16.75;;;7.10;;
40669;SDS011;26355;45.528;9.234;2023-02-28T04:48:30;18.23;;;7.80;;
40669;SDS011;26355;45.528;9.234;2023-02-28T04:51:01;17.63;;;8.13;;
40669;SDS011;26355;45.528;9.234;2023-02-28T04:53:30;17.63;;;7.60;;
40669;SDS011;26355;45.528;9.234;2023-02-28T04:56:03;17.20;;;7.15;;
40669;SDS011;26355;45.528;9.234;2023-02-28T04:58:29;16.20;;;7.43;;
40669;SDS011;26355;45.528;9.234;2023-02-28T05:01:00;18.10;;;7.80;;
40669;SDS011;26355;45.528;9.234;2023-02-28T05:03:30;17.25;;;7.82;;
40669;SDS011;26355;45.528;9.234;2023-02-28T05:05:55;17.40;;;7.28;;
40669;SDS011;26355;45.528;9.234;2023-02-28T05:08:21;17.65;;;7.78;;
40669;SDS011;26355;45.528;9.234;2023-02-28T05:10:46;17.23;;;7.28;;
40669;SDS011;26355;45.528;9.234;2023-02-28T05:13:12;17.15;;;7.53;;
40669;SDS011;26355;45.528;9.234;2023-02-28T05:15:38;17.98;;;8.35;;
40669;SDS011;26355;45.528;9.234;2023-02-28T05:18:04;18.58;;;7.65;;
40669;SDS011;26355;45.528;9.234;2023-02-28T05:20:29;16.73;;;6.55;;
40669;SDS011;26355;45.528;9.234;2023-02-28T05:22:55;17.50;;;7.30;;
40669;SDS011;26355;45.528;9.234;2023-02-28T05:25:23;17.45;;;6.85;;
40669;SDS011;26355;45.528;9.234;2023-02-28T05:27:48;18.35;;;7.75;;
40669;SDS011;26355;45.528;9.234;2023-02-28T05:30:14;19.65;;;7.55;;
40669;SDS011;26355;45.528;9.234;2023-02-28T05:32:40;18.52;;;7.88;;
40669;SDS011;26355;45.528;9.234;2023-02-28T05:35:08;16.95;;;7.00;;
40669;SDS011;26355;45.528;9.234;2023-02-28T05:37:34;17.20;;;7.43;;
40669;SDS011;26355;45.528;9.234;2023-02-28T05:40:01;18.10;;;7.95;;
40669;SDS011;26355;45.528;9.234;2023-02-28T05:42:27;17.35;;;6.85;;
40669;SDS011;26355;45.528;9.234;2023-02-28T05:44:53;18.05;;;7.78;;
40669;SDS011;26355;45.528;9.234;2023-02-28T05:47:18;17.95;;;7.57;;
40669;SDS011;26355;45.528;9.234;2023-02-28T05:49:44;19.77;;;8.02;;
40669;SDS011;26355;45.528;9.234;2023-02-28T05:52:09;17.02;;;7.45;;
40669;SDS011;26355;45.528;9.234;2023-02-28T05:54:35;19.85;;;8.75;;
40669;SDS011;26355;45.528;9.234;2023-02-28T05:57:01;17.15;;;7.68;;
40669;SDS011;26355;45.528;9.234;2023-02-28T05:59:26;25.15;;;9.93;;
40669;SDS011;26355;45.528;9.234;2023-02-28T06:01:52;19.73;;;8.82;;
40669;SDS011;26355;45.528;9.234;2023-02-28T06:04:18;19.52;;;8.45;;
40669;SDS011;26355;45.528;9.234;2023-02-28T06:06:45;22.30;;;9.83;;
40669;SDS011;26355;45.528;9.234;2023-02-28T06:09:15;17.65;;;8.10;;
40669;SDS011;26355;45.528;9.234;2023-02-28T06:11:41;18.65;;;8.80;;
40669;SDS011;26355;45.528;9.234;2023-02-28T06:14:09;18.88;;;8.65;;
40669;SDS011;26355;45.528;9.234;2023-02-28T06:16:42;20.20;;;8.95;;
40669;SDS011;26355;45.528;9.234;2023-02-28T06:19:08;18.67;;;8.77;;
40669;SDS011;26355;45.528;9.234;2023-02-28T06:21:35;18.35;;;7.95;;
40669;SDS011;26355;45.528;9.234;2023-02-28T06:24:01;18.02;;;8.20;;
40669;SDS011;26355;45.528;9.234;2023-02-28T06:26:28;23.13;;;9.88;;
40669;SDS011;26355;45.528;9.234;2023-02-28T06:28:54;19.70;;;9.05;;
40669;SDS011;26355;45.528;9.234;2023-02-28T06:31:20;19.92;;;8.88;;
40669;SDS011;26355;45.528;9.234;2023-02-28T06:33:47;19.20;;;8.90;;
40669;SDS011;26355;45.528;9.234;2023-02-28T06:36:13;20.35;;;8.98;;
40669;SDS011;26355;45.528;9.234;2023-02-28T06:38:40;20.35;;;9.38;;
40669;SDS011;26355;45.528;9.234;2023-02-28T06:41:06;21.25;;;9.35;;
40669;SDS011;26355;45.528;9.234;2023-02-28T06:43:34;19.23;;;9.23;;
40669;SDS011;26355;45.528;9.234;2023-02-28T06:46:04;21.17;;;9.38;;
40669;SDS011;26355;45.528;9.234;2023-02-28T06:48:31;19.60;;;9.23;;
40669;SDS011;26355;45.528;9.234;2023-02-28T06:51:07;21.40;;;10.10;;
40669;SDS011;26355;45.528;9.234;2023-02-28T06:53:35;20.00;;;9.48;;
40669;SDS011;26355;45.528;9.234;2023-02-28T06:56:08;22.00;;;10.25;;
40669;SDS011;26355;45.528;9.234;2023-02-28T06:58:36;21.83;;;10.73;;
40669;SDS011;26355;45.528;9.234;2023-02-28T07:01:02;21.15;;;10.30;;
40669;SDS011;26355;45.528;9.234;2023-02-28T07:03:31;20.85;;;10.25;;
40669;SDS011;26355;45.528;9.234;2023-02-28T07:06:52;20.15;;;10.35;;
40669;SDS011;26355;45.528;9.234;2023-02-28T07:09:17;20.67;;;9.80;;
40669;SDS011;26355;45.528;9.234;2023-02-28T07:11:44;20.27;;;9.65;;
40669;SDS011;26355;45.528;9.234;2023-02-28T07:14:09;21.73;;;10.65;;
40669;SDS011;26355;45.528;9.234;2023-02-28T07:16:35;20.77;;;10.65;;
40669;SDS011;26355;45.528;9.234;2023-02-28T07:19:00;22.10;;;10.52;;
40669;SDS011;26355;45.528;9.234;2023-02-28T07:21:26;20.65;;;9.93;;
40669;SDS011;26355;45.528;9.234;2023-02-28T07:23:51;23.38;;;10.70;;
40669;SDS011;26355;45.528;9.234;2023-02-28T07:26:18;20.50;;;10.18;;
40669;SDS011;26355;45.528;9.234;2023-02-28T07:28:45;20.48;;;10.65;;
40669;SDS011;26355;45.528;9.234;2023-02-28T07:31:12;22.77;;;11.57;;
40669;SDS011;26355;45.528;9.234;2023-02-28T07:33:39;21.48;;;10.07;;
40669;SDS011;26355;45.528;9.234;2023-02-28T07:36:11;23.20;;;11.55;;
40669;SDS011;26355;45.528;9.234;2023-02-28T07:38:40;24.98;;;11.35;;
40669;SDS011;26355;45.528;9.234;2023-02-28T07:41:13;21.35;;;10.88;;
40669;SDS011;26355;45.528;9.234;2023-02-28T07:43:40;23.60;;;10.90;;
40669;SDS011;26355;45.528;9.234;2023-02-28T07:46:07;25.95;;;11.02;;
40669;SDS011;26355;45.528;9.234;2023-02-28T07:48:35;24.75;;;12.43;;
40669;SDS011;26355;45.528;9.234;2023-02-28T07:51:00;21.85;;;10.73;;
40669;SDS011;26355;45.528;9.234;2023-02-28T07:53:26;25.08;;;11.77;;
40669;SDS011;26355;45.528;9.234;2023-02-28T07:55:56;25.52;;;11.13;;
40669;SDS011;26355;45.528;9.234;2023-02-28T07:58:23;24.50;;;11.60;;
40669;SDS011;26355;45.528;9.234;2023-02-28T08:00:50;24.60;;;11.17;;
40669;SDS011;26355;45.528;9.234;2023-02-28T08:03:16;23.05;;;10.77;;
40669;SDS011;26355;45.528;9.234;2023-02-28T08:08:08;24.05;;;11.55;;
40669;SDS011;26355;45.528;9.234;2023-02-28T08:10:34;22.85;;;10.93;;
40669;SDS011;26355;45.528;9.234;2023-02-28T08:13:00;22.63;;;11.50;;
40669;SDS011;26355;45.528;9.234;2023-02-28T08:15:26;23.83;;;11.60;;
40669;SDS011;26355;45.528;9.234;2023-02-28T08:17:52;23.83;;;12.35;;
40669;SDS011;26355;45.528;9.234;2023-02-28T08:20:18;23.35;;;11.38;;
40669;SDS011;26355;45.528;9.234;2023-02-28T08:22:44;21.58;;;10.85;;
40669;SDS011;26355;45.528;9.234;2023-02-28T08:25:09;21.25;;;10.90;;
40669;SDS011;26355;45.528;9.234;2023-02-28T08:27:35;21.48;;;11.18;;
40669;SDS011;26355;45.528;9.234;2023-02-28T08:30:02;22.83;;;10.80;;
40669;SDS011;26355;45.528;9.234;2023-02-28T08:32:28;21.50;;;10.73;;
40669;SDS011;26355;45.528;9.234;2023-02-28T08:34:53;23.63;;;11.32;;
40669;SDS011;26355;45.528;9.234;2023-02-28T08:37:19;21.02;;;10.77;;
40669;SDS011;26355;45.528;9.234;2023-02-28T08:39:45;20.85;;;11.50;;
40669;SDS011;26355;45.528;9.234;2023-02-28T08:42:10;22.30;;;10.57;;
40669;SDS011;26355;45.528;9.234;2023-02-28T08:44:36;21.52;;;11.57;;
40669;SDS011;26355;45.528;9.234;2023-02-28T08:47:02;23.00;;;12.20;;
40669;SDS011;26355;45.528;9.234;2023-02-28T08:49:27;22.02;;;11.13;;
40669;SDS011;26355;45.528;9.234;2023-02-28T08:51:53;21.55;;;11.73;;
40669;SDS011;26355;45.528;9.234;2023-02-28T08:54:20;20.67;;;10.50;;
40669;SDS011;26355;45.528;9.234;2023-02-28T08:56:46;20.90;;;11.35;;
40669;SDS011;26355;45.528;9.234;2023-02-28T08:59:12;23.92;;;11.18;;
40669;SDS011;26355;45.528;9.234;2023-02-28T09:01:38;24.70;;;11.27;;
40669;SDS011;26355;45.528;9.234;2023-02-28T09:04:06;22.17;;;11.23;;
40669;SDS011;26355;45.528;9.234;2023-02-28T09:06:33;21.90;;;11.30;;
40669;SDS011;26355;45.528;9.234;2023-02-28T09:08:59;21.40;;;9.73;;
40669;SDS011;26355;45.528;9.234;2023-02-28T09:11:26;20.77;;;10.57;;
40669;SDS011;26355;45.528;9.234;2023-02-28T09:13:52;23.20;;;11.00;;
40669;SDS011;26355;45.528;9.234;2023-02-28T09:16:18;21.77;;;10.70;;
40669;SDS011;26355;45.528;9.234;2023-02-28T09:18:44;24.02;;;12.20;;
40669;SDS011;26355;45.528;9.234;2023-02-28T09:21:11;21.88;;;11.27;;
40669;SDS011;26355;45.528;9.234;2023-02-28T09:23:39;22.20;;;10.65;;
40669;SDS011;26355;45.528;9.234;2023-02-28T09:26:12;22.35;;;10.95;;
40669;SDS011;26355;45.528;9.234;2023-02-28T09:28:39;22.45;;;10.85;;
40669;SDS011;26355;45.528;9.234;2023-02-28T09:31:05;21.88;;;11.27;;
40669;SDS011;26355;45.528;9.234;2023-02-28T09:33:31;18.90;;;10.25;;
40669;SDS011;26355;45.528;9.234;2023-02-28T09:36:00;21.77;;;10.57;;
40669;SDS011;26355;45.528;9.234;2023-02-28T09:38:27;21.50;;;10.73;;
40669;SDS011;26355;45.528;9.234;2023-02-28T09:41:00;21.60;;;10.63;;
40669;SDS011;26355;45.528;9.234;2023-02-28T09:43:29;24.08;;;10.38;;
40669;SDS011;26355;45.528;9.234;2023-02-28T09:48:56;21.17;;;10.57;;
40669;SDS011;26355;45.528;9.234;2023-02-28T09:53:48;21.55;;;10.00;;
40669;SDS011;26355;45.528;9.234;2023-02-28T09:56:15;20.73;;;10.20;;
40669;SDS011;26355;45.528;9.234;2023-02-28T09:58:59;21.20;;;10.38;;
40669;SDS011;26355;45.528;9.234;2023-02-28T10:07:26;22.40;;;10.65;;
40669;SDS011;26355;45.528;9.234;2023-02-28T10:10:18;20.85;;;11.00;;
40669;SDS011;26355;45.528;9.234;2023-02-28T10:12:48;21.83;;;10.38;;
40669;SDS011;26355;45.528;9.234;2023-02-28T10:15:16;22.75;;;10.52;;
40669;SDS011;26355;45.528;9.234;2023-02-28T10:17:42;21.50;;;11.18;;
40669;SDS011;26355;45.528;9.234;2023-02-28T10:20:17;22.45;;;11.32;;
40669;SDS011;26355;45.528;9.234;2023-02-28T10:25:21;21.90;;;11.32;;
40669;SDS011;26355;45.528;9.234;2023-02-28T10:27:52;21.13;;;11.35;;
40669;SDS011;26355;45.528;9.234;2023-02-28T10:30:22;23.80;;;12.60;;
40669;SDS011;26355;45.528;9.234;2023-02-28T10:32:51;21.52;;;11.25;;
40669;SDS011;26355;45.528;9.234;2023-02-28T10:35:22;23.10;;;11.45;;
40669;SDS011;26355;45.528;9.234;2023-02-28T10:37:50;25.20;;;12.85;;
40669;SDS011;26355;45.528;9.234;2023-02-28T10:45:52;23.40;;;13.10;;
40669;SDS011;26355;45.528;9.234;2023-02-28T10:55:56;24.10;;;12.88;;
40669;SDS011;26355;45.528;9.234;2023-02-28T10:58:26;24.80;;;13.40;;
40669;SDS011;26355;45.528;9.234;2023-02-28T11:01:10;22.75;;;13.05;;
40669;SDS011;26355;45.528;9.234;2023-02-28T11:04:17;22.58;;;12.85;;
40669;SDS011;26355;45.528;9.234;2023-02-28T11:07:39;24.52;;;13.27;;
40669;SDS011;26355;45.528;9.234;2023-02-28T11:09:48;22.90;;;12.77;;
40669;SDS011;26355;45.528;9.234;2023-02-28T11:14:49;25.73;;;14.23;;
40669;SDS011;26355;45.528;9.234;2023-02-28T11:17:21;23.38;;;13.55;;
40669;SDS011;26355;45.528;9.234;2023-02-28T11:19:56;26.73;;;13.70;;
40669;SDS011;26355;45.528;9.234;2023-02-28T11:22:37;21.63;;;12.18;;
40669;SDS011;26355;45.528;9.234;2023-02-28T11:25:09;24.42;;;13.63;;
40669;SDS011;26355;45.528;9.234;2023-02-28T11:27:46;24.42;;;14.32;;
40669;SDS011;26355;45.528;9.234;2023-02-28T11:32:56;24.02;;;13.68;;
40669;SDS011;26355;45.528;9.234;2023-02-28T11:35:27;24.52;;;13.38;;
40669;SDS011;26355;45.528;9.234;2023-02-28T11:38:00;23.70;;;13.70;;
40669;SDS011;26355;45.528;9.234;2023-02-28T11:41:02;24.40;;;13.45;;
40669;SDS011;26355;45.528;9.234;2023-02-28T11:48:42;24.40;;;14.10;;
40669;SDS011;26355;45.528;9.234;2023-02-28T11:56:47;25.20;;;14.10;;
40669;SDS011;26355;45.528;9.234;2023-02-28T12:02:05;25.42;;;15.23;;
40669;SDS011;26355;45.528;9.234;2023-02-28T12:04:51;26.10;;;15.48;;
40669;SDS011;26355;45.528;9.234;2023-02-28T12:10:26;25.90;;;15.52;;
40669;SDS011;26355;45.528;9.234;2023-02-28T12:18:15;23.98;;;14.32;;
40669;SDS011;26355;45.528;9.234;2023-02-28T12:28:25;25.77;;;15.15;;
40669;SDS011;26355;45.528;9.234;2023-02-28T12:30:56;28.45;;;15.15;;
40669;SDS011;26355;45.528;9.234;2023-02-28T12:33:28;26.50;;;16.45;;
40669;SDS011;26355;45.528;9.234;2023-02-28T12:36:00;25.88;;;15.93;;
40669;SDS011;26355;45.528;9.234;2023-02-28T12:41:51;24.40;;;15.05;;
40669;SDS011;26355;45.528;9.234;2023-02-28T12:44:49;24.58;;;15.27;;
40669;SDS011;26355;45.528;9.234;2023-02-28T12:47:19;25.00;;;15.10;;
40669;SDS011;26355;45.528;9.234;2023-02-28T12:52:22;25.23;;;15.20;;
40669;SDS011;26355;45.528;9.234;2023-02-28T13:00:19;25.83;;;14.77;;
40669;SDS011;26355;45.528;9.234;2023-02-28T13:11:02;26.02;;;14.63;;
40669;SDS011;26355;45.528;9.234;2023-02-28T13:13:29;25.25;;;15.55;;
40669;SDS011;26355;45.528;9.234;2023-02-28T13:18:28;24.40;;;15.15;;
40669;SDS011;26355;45.528;9.234;2023-02-28T13:20:57;25.88;;;14.93;;
40669;SDS011;26355;45.528;9.234;2023-02-28T13:26:17;24.48;;;14.93;;
40669;SDS011;26355;45.528;9.234;2023-02-28T13:31:18;27.38;;;16.05;;
40669;SDS011;26355;45.528;9.234;2023-02-28T13:36:30;25.05;;;14.48;;
40669;SDS011;26355;45.528;9.234;2023-02-28T13:38:58;25.08;;;14.93;;
40669;SDS011;26355;45.528;9.234;2023-02-28T13:44:05;24.13;;;14.88;;
40669;SDS011;26355;45.528;9.234;2023-02-28T13:51:52;27.00;;;14.73;;
40669;SDS011;26355;45.528;9.234;2023-02-28T13:54:30;25.90;;;15.60;;
40669;SDS011;26355;45.528;9.234;2023-02-28T13:57:12;24.13;;;13.77;;
40669;SDS011;26355;45.528;9.234;2023-02-28T14:07:40;27.23;;;15.95;;
40669;SDS011;26355;45.528;9.234;2023-02-28T14:10:23;27.10;;;16.15;;
40669;SDS011;26355;45.528;9.234;2023-02-28T14:15:58;26.30;;;16.15;;
40669;SDS011;26355;45.528;9.234;2023-02-28T14:31:58;24.48;;;14.25;;
40669;SDS011;26355;45.528;9.234;2023-02-28T14:34:43;24.50;;;14.38;;
40669;SDS011;26355;45.528;9.234;2023-02-28T14:37:24;25.92;;;15.30;;
40669;SDS011;26355;45.528;9.234;2023-02-28T14:39:54;27.15;;;15.10;;
40669;SDS011;26355;45.528;9.234;2023-02-28T14:42:27;23.88;;;14.35;;
40669;SDS011;26355;45.528;9.234;2023-02-28T14:44:58;25.27;;;15.18;;
40669;SDS011;26355;45.528;9.234;2023-02-28T14:47:28;25.60;;;15.77;;
40669;SDS011;26355;45.528;9.234;2023-02-28T14:49:57;26.77;;;14.40;;
40669;SDS011;26355;45.528;9.234;2023-02-28T14:52:24;24.95;;;14.50;;
40669;SDS011;26355;45.528;9.234;2023-02-28T14:54:58;22.95;;;14.13;;
40669;SDS011;26355;45.528;9.234;2023-02-28T14:57:27;24.27;;;14.40;;
40669;SDS011;26355;45.528;9.234;2023-02-28T15:00:03;27.70;;;15.88;;
40669;SDS011;26355;45.528;9.234;2023-02-28T15:02:46;25.95;;;15.52;;
40669;SDS011;26355;45.528;9.234;2023-02-28T15:07:38;26.65;;;15.05;;
40669;SDS011;26355;45.528;9.234;2023-02-28T15:10:15;26.48;;;15.40;;
40669;SDS011;26355;45.528;9.234;2023-02-28T15:12:56;25.45;;;16.02;;
40669;SDS011;26355;45.528;9.234;2023-02-28T15:16:12;24.75;;;14.90;;
40669;SDS011;26355;45.528;9.234;2023-02-28T15:20:56;27.48;;;15.52;;
40669;SDS011;26355;45.528;9.234;2023-02-28T15:23:26;24.95;;;15.43;;
40669;SDS011;26355;45.528;9.234;2023-02-28T15:25:52;25.05;;;15.15;;
40669;SDS011;26355;45.528;9.234;2023-02-28T15:28:20;25.60;;;15.32;;
40669;SDS011;26355;45.528;9.234;2023-02-28T15:30:57;24.98;;;15.65;;
40669;SDS011;26355;45.528;9.234;2023-02-28T15:33:26;24.80;;;15.60;;
40669;SDS011;26355;45.528;9.234;2023-02-28T15:36:14;27.17;;;16.63;;
40669;SDS011;26355;45.528;9.234;2023-02-28T15:38:42;25.48;;;14.23;;
40669;SDS011;26355;45.528;9.234;2023-02-28T15:41:25;25.55;;;15.00;;
40669;SDS011;26355;45.528;9.234;2023-02-28T15:47:00;24.80;;;14.95;;
40669;SDS011;26355;45.528;9.234;2023-02-28T15:49:39;24.95;;;15.50;;
40669;SDS011;26355;45.528;9.234;2023-02-28T15:52:13;27.65;;;15.65;;
40669;SDS011;26355;45.528;9.234;2023-02-28T15:54:41;25.98;;;15.85;;
40669;SDS011;26355;45.528;9.234;2023-02-28T15:57:10;28.00;;;15.70;;
40669;SDS011;26355;45.528;9.234;2023-02-28T15:59:51;25.67;;;15.60;;
40669;SDS011;26355;45.528;9.234;2023-02-28T16:02:43;26.05;;;15.48;;
40669;SDS011;26355;45.528;9.234;2023-02-28T16:07:37;25.38;;;15.93;;
40669;SDS011;26355;45.528;9.234;2023-02-28T16:10:05;26.02;;;15.95;;
40669;SDS011;26355;45.528;9.234;2023-02-28T16:12:32;26.45;;;15.52;;
40669;SDS011;26355;45.528;9.234;2023-02-28T16:15:09;26.50;;;15.90;;
40669;SDS011;26355;45.528;9.234;2023-02-28T16:17:42;29.83;;;15.93;;
40669;SDS011;26355;45.528;9.234;2023-02-28T16:20:27;26.65;;;15.38;;
40669;SDS011;26355;45.528;9.234;2023-02-28T16:22:54;27.43;;;16.87;;
40669;SDS011;26355;45.528;9.234;2023-02-28T16:25:22;27.17;;;15.35;;
40669;SDS011;26355;45.528;9.234;2023-02-28T16:27:53;27.25;;;15.38;;
40669;SDS011;26355;45.528;9.234;2023-02-28T16:30:22;27.85;;;16.67;;
40669;SDS011;26355;45.528;9.234;2023-02-28T16:32:49;30.77;;;16.50;;
40669;SDS011;26355;45.528;9.234;2023-02-28T16:35:16;31.83;;;15.82;;
40669;SDS011;26355;45.528;9.234;2023-02-28T16:37:43;26.20;;;15.32;;
40669;SDS011;26355;45.528;9.234;2023-02-28T16:40:16;26.90;;;16.00;;
40669;SDS011;26355;45.528;9.234;2023-02-28T16:42:45;25.98;;;15.38;;
40669;SDS011;26355;45.528;9.234;2023-02-28T16:45:31;25.60;;;14.98;;
40669;SDS011;26355;45.528;9.234;2023-02-28T16:47:56;26.05;;;16.33;;
40669;SDS011;26355;45.528;9.234;2023-02-28T16:50:23;25.88;;;16.55;;
40669;SDS011;26355;45.528;9.234;2023-02-28T16:52:51;25.23;;;15.38;;
40669;SDS011;26355;45.528;9.234;2023-02-28T16:55:17;27.77;;;16.50;;
40669;SDS011;26355;45.528;9.234;2023-02-28T16:57:44;26.42;;;16.38;;
40669;SDS011;26355;45.528;9.234;2023-02-28T17:00:16;28.10;;;15.98;;
40669;SDS011;26355;45.528;9.234;2023-02-28T17:02:41;25.67;;;15.82;;
40669;SDS011;26355;45.528;9.234;2023-02-28T17:05:08;28.98;;;16.42;;
40669;SDS011;26355;45.528;9.234;2023-02-28T17:07:35;26.27;;;16.15;;
40669;SDS011;26355;45.528;9.234;2023-02-28T17:10:01;26.50;;;16.17;;
40669;SDS011;26355;45.528;9.234;2023-02-28T17:12:33;29.92;;;16.70;;
40669;SDS011;26355;45.528;9.234;2023-02-28T17:15:01;27.08;;;16.55;;
40669;SDS011;26355;45.528;9.234;2023-02-28T17:19:58;26.88;;;15.80;;
40669;SDS011;26355;45.528;9.234;2023-02-28T17:22:23;30.85;;;16.38;;
40669;SDS011;26355;45.528;9.234;2023-02-28T17:24:50;24.58;;;15.15;;
40669;SDS011;26355;45.528;9.234;2023-02-28T17:27:20;28.67;;;17.30;;
40669;SDS011;26355;45.528;9.234;2023-02-28T17:29:46;28.05;;;16.23;;
40669;SDS011;26355;45.528;9.234;2023-02-28T17:32:12;25.60;;;15.10;;
40669;SDS011;26355;45.528;9.234;2023-02-28T17:34:38;30.23;;;16.80;;
40669;SDS011;26355;45.528;9.234;2023-02-28T17:37:03;29.17;;;16.73;;